createdAt,value
2022-10-30T00:00:32.306Z,96665.28
2022-10-30T00:02:59.210Z,96673.56
2022-10-30T00:05:26.709Z,96689.34
2022-10-30T00:07:55.761Z,96706.84
2022-10-30T00:10:22.799Z,96698.66
2022-10-30T00:12:49.326Z,96683.59
2022-10-30T00:15:15.965Z,96789.53
2022-10-30T00:17:42.543Z,96726.72
2022-10-30T00:20:09.610Z,96703.69
2022-10-30T00:22:36.629Z,96693.38
2022-10-30T00:25:04.529Z,96682.25
2022-10-30T00:27:31.104Z,96734.69
2022-10-30T00:29:57.702Z,96716.97
2022-10-30T00:32:24.268Z,96704.94
2022-10-30T00:34:51.161Z,96696.09
2022-10-30T00:37:17.804Z,96719.16
2022-10-30T00:39:44.369Z,96703.91
2022-10-30T00:42:16.117Z,96743.44
2022-10-30T00:44:46.475Z,96743.44
2022-10-30T00:47:28.185Z,96670.06
2022-10-30T00:50:23.122Z,96697.97
2022-10-30T00:53:20.174Z,96652.00
2022-10-30T00:55:54.079Z,96660.28
2022-10-30T00:58:21.683Z,96688.09
2022-10-30T01:00:53.335Z,96707.00
2022-10-30T01:03:22.871Z,96735.44
2022-10-30T01:05:53.772Z,96767.59
2022-10-30T01:08:20.624Z,96734.69
2022-10-30T01:10:48.367Z,96749.44
2022-10-30T01:13:15.839Z,96746.06
2022-10-30T01:16:00.681Z,96713.97
2022-10-30T01:18:50.386Z,96733.97
2022-10-30T01:21:30.060Z,96769.06
2022-10-30T01:24:12.650Z,96735.81
2022-10-30T01:26:51.376Z,96736.56
2022-10-30T01:29:37.602Z,96715.88
2022-10-30T01:32:27.231Z,96739.03
2022-10-30T01:35:02.562Z,96724.13
2022-10-30T01:37:40.776Z,96728.72
2022-10-30T01:40:13.552Z,96714.50
2022-10-30T01:42:59.836Z,96701.44
2022-10-30T01:45:55.806Z,96714.50
2022-10-30T01:48:59.239Z,96705.75
2022-10-30T01:51:41.633Z,96715.19
2022-10-30T01:54:29.614Z,96723.03
2022-10-30T01:57:07.214Z,96700.25
2022-10-30T01:59:40.260Z,96691.63
2022-10-30T02:02:08.680Z,96701.38
2022-10-30T02:04:36.365Z,96713.69
2022-10-30T02:07:03.898Z,96721.44
2022-10-30T02:09:34.656Z,96714.03
2022-10-30T02:12:02.604Z,96706.81
2022-10-30T02:14:36.237Z,96690.63
2022-10-30T02:17:06.997Z,96666.66
2022-10-30T02:19:34.652Z,96669.59
2022-10-30T02:22:02.691Z,96709.41
2022-10-30T02:24:30.142Z,96670.56
2022-10-30T02:26:56.751Z,96665.72
2022-10-30T02:29:23.533Z,96682.94
2022-10-30T02:31:50.507Z,96704.31
2022-10-30T02:34:17.153Z,96687.13
2022-10-30T02:36:44.038Z,96668.34
2022-10-30T02:39:10.908Z,96671.66
2022-10-30T02:41:37.695Z,96653.22
2022-10-30T02:44:05.241Z,96630.00
2022-10-30T02:46:32.248Z,96610.41
2022-10-30T02:48:58.987Z,96629.06
2022-10-30T02:51:26.946Z,96621.63
2022-10-30T02:53:53.795Z,96597.91
2022-10-30T02:56:20.430Z,96595.22
2022-10-30T02:58:47.208Z,96585.69
2022-10-30T03:01:19.614Z,96597.44
2022-10-30T03:03:47.034Z,96596.41
2022-10-30T03:06:16.793Z,96625.59
2022-10-30T03:08:44.098Z,96696.88
2022-10-30T03:11:16.177Z,96696.88
2022-10-30T03:13:44.305Z,96700.63
2022-10-30T03:16:20.235Z,96688.06
2022-10-30T03:18:49.983Z,96720.53
2022-10-30T03:21:20.168Z,96736.53
2022-10-30T03:23:46.820Z,96719.25
2022-10-30T03:26:13.617Z,96713.09
2022-10-30T03:28:48.983Z,96757.66
2022-10-30T03:31:19.054Z,96653.91
2022-10-30T03:33:47.019Z,96679.03
2022-10-30T03:36:14.929Z,96641.94
2022-10-30T03:38:42.221Z,96623.50
2022-10-30T03:41:10.560Z,96602.69
2022-10-30T03:43:37.181Z,96611.00
2022-10-30T03:46:03.981Z,96612.84
2022-10-30T03:48:31.555Z,96633.22
2022-10-30T03:50:59.543Z,96631.63
2022-10-30T03:53:28.638Z,96622.22
2022-10-30T03:56:04.031Z,96594.53
2022-10-30T03:58:40.094Z,96612.81
2022-10-30T04:01:10.508Z,96608.44
2022-10-30T04:03:40.054Z,96595.28
2022-10-30T04:06:08.949Z,96616.84
2022-10-30T04:08:35.642Z,96626.66
2022-10-30T04:11:03.080Z,96585.06
2022-10-30T04:13:29.851Z,96605.09
2022-10-30T04:15:58.112Z,96637.25
2022-10-30T04:18:26.343Z,96656.22
2022-10-30T04:20:53.686Z,96682.19
2022-10-30T04:23:21.743Z,96668.56
2022-10-30T04:25:48.529Z,96644.66
2022-10-30T04:28:15.953Z,96610.94
2022-10-30T04:30:43.637Z,96644.47
2022-10-30T04:33:12.607Z,96638.19
2022-10-30T04:35:41.116Z,96666.97
2022-10-30T04:38:16.074Z,96660.31
2022-10-30T04:40:44.315Z,96642.16
2022-10-30T04:43:13.363Z,96698.53
2022-10-30T04:45:41.188Z,96649.88
2022-10-30T04:48:13.265Z,96658.19
2022-10-30T04:50:41.377Z,96655.81
2022-10-30T04:53:18.867Z,96636.16
2022-10-30T04:55:48.057Z,96742.56
2022-10-30T04:58:15.053Z,96654.63
2022-10-30T05:00:43.706Z,96673.22
2022-10-30T05:03:20.891Z,96632.50
2022-10-30T05:05:55.814Z,96650.69
2022-10-30T05:08:22.436Z,96643.19
2022-10-30T05:10:49.199Z,96648.06
2022-10-30T05:13:15.899Z,96659.81
2022-10-30T05:15:42.723Z,96678.81
2022-10-30T05:18:09.381Z,96688.28
2022-10-30T05:20:36.091Z,96705.53
2022-10-30T05:23:03.120Z,96727.13
2022-10-30T05:25:30.666Z,96758.72
2022-10-30T05:28:04.882Z,96763.53
2022-10-30T05:30:37.344Z,96699.44
2022-10-30T05:33:11.727Z,96733.44
2022-10-30T05:35:39.316Z,96697.50
2022-10-30T05:38:07.595Z,96704.56
2022-10-30T05:40:34.937Z,96716.78
2022-10-30T05:43:02.009Z,96743.34
2022-10-30T05:45:29.092Z,96726.88
2022-10-30T05:48:03.358Z,96739.69
2022-10-30T05:50:34.314Z,96756.84
2022-10-30T05:53:17.096Z,96740.41
2022-10-30T05:55:44.342Z,96797.06
2022-10-30T05:58:16.587Z,96802.03
2022-10-30T06:00:45.009Z,96811.91
2022-10-30T06:03:16.288Z,96800.63
2022-10-30T06:05:45.752Z,96804.22
2022-10-30T06:08:16.264Z,96845.22
2022-10-30T06:10:43.956Z,96842.28
2022-10-30T06:13:20.794Z,96767.00
2022-10-30T06:15:59.926Z,96724.31
2022-10-30T06:18:37.051Z,96735.13
2022-10-30T06:21:09.430Z,96739.47
2022-10-30T06:24:03.858Z,96771.69
2022-10-30T06:26:40.980Z,96767.34
2022-10-30T06:29:10.657Z,96772.84
2022-10-30T06:31:37.257Z,96785.88
2022-10-30T06:34:03.905Z,96808.03
2022-10-30T06:36:32.552Z,96853.56
2022-10-30T06:38:59.470Z,96888.69
2022-10-30T06:41:33.889Z,96829.06
2022-10-30T06:44:29.836Z,96815.38
2022-10-30T06:46:57.152Z,96856.94
2022-10-30T06:49:23.774Z,96821.09
2022-10-30T06:51:51.406Z,96818.78
2022-10-30T06:54:18.129Z,96801.28
2022-10-30T06:56:59.961Z,96796.78
2022-10-30T06:59:52.002Z,96802.28
2022-10-30T07:02:43.474Z,96800.00
2022-10-30T07:05:12.430Z,96789.31
2022-10-30T07:07:38.977Z,96861.53
2022-10-30T07:10:07.889Z,96873.53
2022-10-30T07:12:54.845Z,96873.91
2022-10-30T07:18:19.218Z,96788.59
2022-10-30T07:20:46.474Z,96804.81
2022-10-30T07:23:13.145Z,96877.59
2022-10-30T07:25:39.889Z,96934.13
2022-10-30T07:28:18.566Z,96924.44
2022-10-30T07:30:57.827Z,96905.78
2022-10-30T07:33:42.139Z,96887.00
2022-10-30T07:36:18.544Z,96827.91
2022-10-30T07:39:11.138Z,96820.38
2022-10-30T07:41:47.354Z,96773.75
2022-10-30T07:44:34.906Z,96752.00
2022-10-30T07:47:20.001Z,96794.25
2022-10-30T07:50:01.959Z,96811.47
2022-10-30T07:52:33.641Z,96799.88
2022-10-30T07:55:00.632Z,96805.28
2022-10-30T07:57:45.781Z,96815.00
2022-10-30T08:00:30.959Z,96806.81
2022-10-30T08:03:06.523Z,96797.22
2022-10-30T08:05:56.322Z,96820.97
2022-10-30T08:08:40.332Z,96854.97
2022-10-30T08:11:29.088Z,96887.38
2022-10-30T08:13:57.731Z,96791.53
2022-10-30T08:16:24.422Z,96851.84
2022-10-30T08:18:51.165Z,96870.38
2022-10-30T08:21:20.308Z,96854.69
2022-10-30T08:23:56.278Z,96777.88
2022-10-30T08:26:25.696Z,96796.41
2022-10-30T08:28:52.476Z,96851.59
2022-10-30T08:31:19.602Z,96902.88
2022-10-30T08:34:01.311Z,96814.09
2022-10-30T08:36:51.497Z,96776.28
2022-10-30T08:39:19.087Z,96782.41
2022-10-30T08:42:14.784Z,96765.50
2022-10-30T08:44:44.033Z,96769.75
2022-10-30T08:47:33.744Z,96766.91
2022-10-30T08:50:01.010Z,96780.84
2022-10-30T08:52:30.505Z,96756.09
2022-10-30T08:54:57.153Z,96775.63
2022-10-30T08:57:27.009Z,96771.44
2022-10-30T08:59:56.039Z,96778.84
2022-10-30T09:02:52.032Z,96768.66
2022-10-30T09:05:37.993Z,96788.13
2022-10-30T09:08:16.332Z,96808.66
2022-10-30T09:11:06.472Z,96803.97
2022-10-30T09:13:33.408Z,96828.53
2022-10-30T09:16:02.139Z,96828.41
2022-10-30T09:18:31.344Z,96858.34
2022-10-30T09:21:00.613Z,96853.66
2022-10-30T09:23:33.079Z,96883.97
2022-10-30T09:26:29.453Z,96934.28
2022-10-30T09:29:09.347Z,96984.47
2022-10-30T09:31:55.885Z,96979.38
2022-10-30T09:34:24.859Z,97005.63
2022-10-30T09:36:59.193Z,97000.56
2022-10-30T09:39:25.950Z,97089.78
2022-10-30T09:41:59.026Z,97041.09
2022-10-30T09:44:36.061Z,97094.38
2022-10-30T09:47:23.520Z,97135.75
2022-10-30T09:50:12.045Z,97137.38
2022-10-30T09:52:58.067Z,97177.88
2022-10-30T09:55:32.206Z,97164.38
2022-10-30T09:58:25.224Z,97252.63
2022-10-30T10:01:07.179Z,97247.78
2022-10-30T10:03:49.692Z,97285.78
2022-10-30T10:06:48.736Z,97279.75
2022-10-30T10:09:35.317Z,97301.25
2022-10-30T10:12:33.885Z,97243.31
2022-10-30T10:15:06.488Z,97316.25
2022-10-30T10:17:39.282Z,97345.19
2022-10-30T10:20:14.959Z,97310.16
2022-10-30T10:22:48.704Z,97348.50
2022-10-30T10:25:18.135Z,97356.34
2022-10-30T10:27:56.605Z,97404.22
2022-10-30T10:30:24.462Z,97471.81
2022-10-30T10:33:15.928Z,97447.41
2022-10-30T10:35:52.447Z,97500.34
2022-10-30T10:38:36.327Z,97536.09
2022-10-30T10:41:19.284Z,97520.22
2022-10-30T10:44:07.292Z,97541.88
2022-10-30T10:46:49.907Z,97595.09
2022-10-30T10:49:54.019Z,97568.41
2022-10-30T10:52:46.297Z,97531.16
2022-10-30T10:55:19.620Z,97603.69
2022-10-30T10:57:47.096Z,97580.41
2022-10-30T11:00:25.643Z,97641.72
2022-10-30T11:06:22.580Z,97569.50
2022-10-30T11:08:50.044Z,97608.44
2022-10-30T11:11:16.683Z,97603.47
2022-10-30T11:13:45.527Z,97630.66
2022-10-30T11:16:28.088Z,97562.75
2022-10-30T11:19:01.196Z,97603.09
2022-10-30T11:21:31.869Z,97585.09
2022-10-30T11:23:58.591Z,97609.22
2022-10-30T11:26:31.617Z,97654.50
2022-10-30T11:29:12.155Z,97662.19
2022-10-30T11:31:40.713Z,97680.28
2022-10-30T11:34:19.394Z,97729.09
2022-10-30T11:36:50.718Z,97721.13
2022-10-30T11:39:22.826Z,97721.13
2022-10-30T11:42:13.886Z,97722.50
2022-10-30T11:44:50.061Z,97744.66
2022-10-30T11:47:21.776Z,97735.50
2022-10-30T11:49:58.010Z,97778.91
2022-10-30T11:52:26.423Z,97799.72
2022-10-30T11:55:22.452Z,97760.56
2022-10-30T11:57:55.289Z,97842.97
2022-10-30T12:00:23.172Z,97777.59
2022-10-30T12:02:52.295Z,97754.94
2022-10-30T12:05:31.214Z,97846.06
2022-10-30T12:08:06.888Z,97729.25
2022-10-30T12:10:39.730Z,97778.75
2022-10-30T12:13:07.073Z,97693.31
2022-10-30T12:15:37.384Z,97768.44
2022-10-30T12:18:06.761Z,97669.41
2022-10-30T12:20:36.597Z,97696.22
2022-10-30T12:23:24.847Z,97684.47
2022-10-30T12:26:08.359Z,97621.06
2022-10-30T12:28:35.606Z,97729.16
2022-10-30T12:31:17.705Z,97689.47
2022-10-30T12:33:50.444Z,97697.41
2022-10-30T12:36:19.537Z,97717.44
2022-10-30T12:38:52.207Z,97683.03
2022-10-30T12:41:26.686Z,97616.44
2022-10-30T12:44:03.153Z,97510.66
2022-10-30T12:46:48.920Z,97542.00
2022-10-30T12:49:41.976Z,97576.44
2022-10-30T12:52:14.791Z,97563.56
2022-10-30T12:55:03.171Z,97599.84
2022-10-30T12:57:44.996Z,97628.25
2022-10-30T13:00:15.702Z,97632.78
2022-10-30T13:02:56.989Z,97635.44
2022-10-30T13:05:47.915Z,97617.66
2022-10-30T13:08:50.983Z,97627.50
2022-10-30T13:11:49.023Z,97761.50
2022-10-30T13:14:51.212Z,97845.88
2022-10-30T13:17:17.896Z,97930.00
2022-10-30T13:19:46.207Z,97896.28
2022-10-30T13:22:36.212Z,97943.63
2022-10-30T13:25:30.215Z,97914.41
2022-10-30T13:28:15.820Z,97959.91
2022-10-30T13:30:59.797Z,97986.81
2022-10-30T13:33:56.217Z,97962.56
2022-10-30T13:36:36.400Z,97958.03
2022-10-30T13:39:17.883Z,97954.56
2022-10-30T13:42:04.020Z,97956.03
2022-10-30T13:45:06.003Z,97952.31
2022-10-30T13:47:50.622Z,98000.75
2022-10-30T13:50:29.010Z,97995.84
2022-10-30T13:53:00.426Z,98015.09
2022-10-30T13:55:34.532Z,98010.94
2022-10-30T13:58:12.675Z,97971.94
2022-10-30T14:00:57.889Z,98000.66
2022-10-30T14:03:44.023Z,97997.31
2022-10-30T14:06:29.456Z,97981.00
2022-10-30T14:09:26.661Z,97996.81
2022-10-30T14:11:55.269Z,97986.69
2022-10-30T14:14:31.483Z,97981.28
2022-10-30T14:17:13.801Z,97943.66
2022-10-30T14:20:14.622Z,97879.28
2022-10-30T14:22:41.546Z,97895.19
2022-10-30T14:25:16.103Z,97883.06
2022-10-30T14:27:42.881Z,97833.84
2022-10-30T14:30:20.029Z,97836.13
2022-10-30T14:32:52.651Z,97752.22
2022-10-30T14:35:46.470Z,97837.25
2022-10-30T14:38:22.557Z,97776.38
2022-10-30T14:40:56.351Z,97833.31
2022-10-30T14:43:39.964Z,97790.25
2022-10-30T14:46:25.741Z,97798.56
2022-10-30T14:49:29.682Z,97668.81
2022-10-30T14:52:30.168Z,97603.06
2022-10-30T14:55:36.100Z,97650.31
2022-10-30T14:58:02.675Z,97682.84
2022-10-30T15:00:40.230Z,97627.19
2022-10-30T15:03:16.134Z,97586.59
2022-10-30T15:06:03.365Z,97605.81
2022-10-30T15:08:56.921Z,97656.44
2022-10-30T15:11:29.464Z,97721.31
2022-10-30T15:14:00.644Z,97606.41
2022-10-30T15:16:28.872Z,97626.78
2022-10-30T15:19:12.591Z,97606.75
2022-10-30T15:21:45.624Z,97587.72
2022-10-30T15:24:16.882Z,97545.38
2022-10-30T15:26:49.173Z,97537.94
2022-10-30T15:29:23.824Z,97541.66
2022-10-30T15:32:14.612Z,97505.53
2022-10-30T15:34:53.447Z,97487.75
2022-10-30T15:37:20.001Z,97447.25
2022-10-30T15:39:46.547Z,97430.09
2022-10-30T15:42:13.591Z,97446.63
2022-10-30T15:44:42.873Z,97464.94
2022-10-30T15:47:18.770Z,97469.06
2022-10-30T15:49:51.454Z,97471.72
2022-10-30T15:52:23.855Z,97443.00
2022-10-30T15:55:06.870Z,97414.25
2022-10-30T15:58:01.632Z,97432.31
2022-10-30T16:00:25.734Z,97406.19
2022-10-30T16:03:02.412Z,97439.22
2022-10-30T16:05:29.363Z,97415.38
2022-10-30T16:07:58.046Z,97396.13
2022-10-30T16:10:27.144Z,97379.44
2022-10-30T16:12:57.225Z,97343.22
2022-10-30T16:15:33.834Z,97310.19
2022-10-30T16:18:07.306Z,97301.31
2022-10-30T16:20:35.670Z,97289.38
2022-10-30T16:23:04.266Z,97239.84
2022-10-30T16:25:32.705Z,97231.19
2022-10-30T16:27:59.708Z,97249.78
2022-10-30T16:30:29.495Z,97215.88
2022-10-30T16:32:56.422Z,97209.53
2022-10-30T16:35:24.852Z,97215.22
2022-10-30T16:37:51.748Z,97230.63
2022-10-30T16:40:24.441Z,97232.13
2022-10-30T16:42:59.228Z,97231.19
2022-10-30T16:45:32.076Z,97222.69
2022-10-30T16:48:08.358Z,97229.59
2022-10-30T16:50:37.637Z,97250.38
2022-10-30T16:53:06.611Z,97237.75
2022-10-30T16:55:34.842Z,97200.81
2022-10-30T16:58:01.603Z,97175.75
2022-10-30T17:00:32.762Z,97200.47
2022-10-30T17:03:08.290Z,97207.84
2022-10-30T17:05:37.055Z,97175.69
2022-10-30T17:08:09.212Z,97149.69
2022-10-30T17:10:42.008Z,97120.06
2022-10-30T17:13:27.321Z,97092.81
2022-10-30T17:15:53.946Z,97109.63
2022-10-30T17:18:27.620Z,97097.91
2022-10-30T17:21:15.116Z,97066.72
2022-10-30T17:23:54.527Z,97024.72
2022-10-30T17:26:21.562Z,97014.66
2022-10-30T17:28:48.566Z,97019.09
2022-10-30T17:31:18.177Z,97019.03
2022-10-30T17:33:46.536Z,97017.97
2022-10-30T17:36:13.285Z,96971.97
2022-10-30T17:38:39.914Z,96997.97
2022-10-30T17:41:08.315Z,97055.84
2022-10-30T17:43:49.037Z,97137.41
2022-10-30T17:46:20.095Z,97156.66
2022-10-30T17:48:47.563Z,97211.31
2022-10-30T17:51:15.747Z,97237.97
2022-10-30T17:53:43.160Z,97221.22
2022-10-30T17:56:16.555Z,97151.31
2022-10-30T17:58:43.154Z,97056.00
2022-10-30T18:01:14.366Z,97022.75
2022-10-30T18:03:41.093Z,97010.22
2022-10-30T18:06:15.083Z,97014.25
2022-10-30T18:08:45.036Z,96991.47
2022-10-30T18:11:16.742Z,97014.75
2022-10-30T18:13:43.502Z,97024.47
2022-10-30T18:16:12.118Z,97032.38
2022-10-30T18:18:38.756Z,97019.81
2022-10-30T18:21:06.143Z,97000.78
2022-10-30T18:26:26.553Z,97007.13
2022-10-30T18:28:54.035Z,96990.03
2022-10-30T18:31:23.496Z,96989.56
2022-10-30T18:33:50.225Z,97005.94
2022-10-30T18:36:22.214Z,97018.38
2022-10-30T18:38:49.355Z,97029.19
2022-10-30T18:41:19.446Z,97044.50
2022-10-30T18:43:47.180Z,97055.94
2022-10-30T18:46:15.135Z,97068.09
2022-10-30T18:48:41.885Z,97072.00
2022-10-30T18:51:17.263Z,97073.31
2022-10-30T18:53:51.534Z,97080.66
2022-10-30T18:56:23.852Z,97092.31
2022-10-30T18:58:54.863Z,97070.31
2022-10-30T19:01:25.755Z,97065.81
2022-10-30T19:03:52.875Z,97033.22
2022-10-30T19:06:22.832Z,97003.53
2022-10-30T19:08:50.142Z,96993.28
2022-10-30T19:11:23.937Z,96993.88
2022-10-30T19:13:52.824Z,96964.47
2022-10-30T19:16:20.689Z,96942.91
2022-10-30T19:18:48.571Z,96927.25
2022-10-30T19:21:23.166Z,96925.97
2022-10-30T19:23:50.000Z,96934.72
2022-10-30T19:26:17.780Z,96939.59
2022-10-30T19:28:45.179Z,96946.09
2022-10-30T19:31:17.097Z,96951.09
2022-10-30T19:33:43.814Z,96939.28
2022-10-30T19:36:37.113Z,96951.31
2022-10-30T19:39:12.859Z,96952.25
2022-10-30T19:41:40.161Z,96948.28
2022-10-30T19:44:06.965Z,96956.38
2022-10-30T19:46:34.333Z,96971.72
2022-10-30T19:49:01.004Z,96988.63
2022-10-30T19:51:28.813Z,96968.44
2022-10-30T19:53:56.091Z,96971.63
2022-10-30T19:56:23.189Z,96979.97
2022-10-30T19:58:49.979Z,96984.75
2022-10-30T20:01:16.924Z,96987.69
2022-10-30T20:03:43.789Z,96941.09
2022-10-30T20:06:15.296Z,96924.50
2022-10-30T20:08:41.946Z,96896.88
2022-10-30T20:11:08.641Z,96879.28
2022-10-30T20:13:37.234Z,96875.47
2022-10-30T20:16:05.540Z,96870.53
2022-10-30T20:18:33.902Z,96874.75
2022-10-30T20:21:03.171Z,96854.25
2022-10-30T20:23:29.841Z,96863.59
2022-10-30T20:25:59.901Z,96880.97
2022-10-30T20:28:37.875Z,96885.59
2022-10-30T20:31:05.714Z,96930.06
2022-10-30T20:33:32.545Z,96945.50
2022-10-30T20:35:59.247Z,96949.63
2022-10-30T20:38:31.584Z,96967.16
2022-10-30T20:41:00.137Z,96938.91
2022-10-30T20:43:37.842Z,96979.91
2022-10-30T20:46:07.016Z,97004.78
2022-10-30T20:48:33.639Z,97027.63
2022-10-30T20:51:01.934Z,97031.69
2022-10-30T20:53:28.912Z,97042.38
2022-10-30T20:55:55.874Z,97023.16
2022-10-30T20:58:22.459Z,97023.63
2022-10-30T21:00:49.267Z,97021.22
2022-10-30T21:03:16.608Z,97013.63
2022-10-30T21:05:45.619Z,97042.56
2022-10-30T21:08:16.038Z,97045.00
2022-10-30T21:10:42.703Z,97058.50
2022-10-30T21:13:11.228Z,97098.84
2022-10-30T21:15:42.697Z,97139.66
2022-10-30T21:18:14.082Z,97143.19
2022-10-30T21:20:41.255Z,97156.91
2022-10-30T21:23:08.243Z,97160.16
2022-10-30T21:25:35.813Z,97169.94
2022-10-30T21:28:02.489Z,97195.59
2022-10-30T21:30:29.097Z,97204.50
2022-10-30T21:32:55.670Z,97199.53
2022-10-30T21:35:22.277Z,97183.25
2022-10-30T21:37:48.948Z,97182.94
2022-10-30T21:40:15.615Z,97169.91
2022-10-30T21:42:42.180Z,97179.47
2022-10-30T21:45:10.004Z,97150.56
2022-10-30T21:47:36.676Z,97106.63
2022-10-30T21:50:07.622Z,97068.78
2022-10-30T21:52:34.715Z,97041.06
2022-10-30T21:55:01.346Z,97036.91
2022-10-30T21:57:29.044Z,97076.41
2022-10-30T21:59:57.701Z,97125.00
2022-10-30T22:02:26.890Z,97142.91
2022-10-30T22:04:53.657Z,97112.75
2022-10-30T22:07:20.350Z,97087.84
2022-10-30T22:09:47.128Z,97071.56
2022-10-30T22:12:13.669Z,97070.72
2022-10-30T22:14:40.191Z,97063.34
2022-10-30T22:17:06.726Z,97053.47
2022-10-30T22:19:33.389Z,97038.75
2022-10-30T22:21:59.955Z,97006.81
2022-10-30T22:24:26.481Z,97002.59
2022-10-30T22:26:53.036Z,97001.41
2022-10-30T22:29:19.633Z,96962.38
2022-10-30T22:31:46.275Z,96931.22
2022-10-30T22:34:12.854Z,96917.06
2022-10-30T22:36:39.443Z,96908.06
2022-10-30T22:39:10.199Z,96900.84
2022-10-30T22:41:38.290Z,96876.28
2022-10-30T22:44:10.331Z,96871.28
2022-10-30T22:46:37.226Z,96849.78
2022-10-30T22:49:04.121Z,96847.72
2022-10-30T22:51:33.046Z,96835.09
2022-10-30T22:54:02.131Z,96823.75
2022-10-30T22:56:31.674Z,96836.63
2022-10-30T22:59:01.289Z,96838.66
2022-10-30T23:01:30.198Z,96847.81
2022-10-30T23:03:59.465Z,96854.59
2022-10-30T23:06:28.113Z,96869.47
2022-10-30T23:08:56.610Z,96859.41
2022-10-30T23:11:24.276Z,96869.28
2022-10-30T23:13:53.129Z,96895.69
2022-10-30T23:16:22.483Z,96887.63
2022-10-30T23:18:49.842Z,96881.53
2022-10-30T23:21:22.143Z,96890.47
2022-10-30T23:23:49.209Z,96901.31
2022-10-30T23:26:19.176Z,96916.31
2022-10-30T23:28:46.929Z,96936.69
2022-10-30T23:31:22.287Z,96937.59
2022-10-30T23:33:50.301Z,96940.66
2022-10-30T23:36:17.188Z,96949.44
2022-10-30T23:38:44.033Z,96941.28
2022-10-30T23:41:10.832Z,96955.16
2022-10-30T23:43:37.405Z,96955.69
2022-10-30T23:46:04.052Z,96942.03
2022-10-30T23:48:30.641Z,96937.69
2022-10-30T23:50:57.362Z,96997.97
2022-10-30T23:53:23.965Z,96934.56
2022-10-30T23:55:54.936Z,96932.81
2022-10-30T23:58:21.944Z,96934.75
